Current Weather

Westchester County

White Plains, New York (KHPN)

Report from: Monday, June 17, 2024 4:56 AM EDT
Current time: Monday, June 17, 2024 5:19 AM EDT

Nearby weather – Weather history – Daily summaries
Weather forecast

Temperature15.6°C (60.1°F)
Dew point14.4°C (57.9°F)
Winds Calm
Visibility9 mi. (14.5 km)
Clouds Few clouds 400 ft. (122 m)
Altimeter30.20 in.Hg (1023 mB)
Relative humidity93 %
Density altitude-14 ft. (-4 m)
Sea-level pressure102.3 kPa (1023 mB, 30.19 in.Hg)
Remarks Automated weather observing station with precipitation discriminator
Pressure falling more slowly
Flight conditions Visual Meteorological Conditions
Raw dataKHPN 170856Z 00000KT 9SM FEW004 16/14 A3020 RMK AO2 SLP225 T01560144 56005
An error has occurred. This application may no longer respond until reloaded. Reload 🗙